createdAt,value
2018-03-16T00:01:14.016Z,2.54
2018-03-16T00:03:41.721Z,2.54
2018-03-16T00:06:09.245Z,2.57
2018-03-16T00:08:36.845Z,2.54
2018-03-16T00:11:04.366Z,2.46
2018-03-16T00:13:31.896Z,2.49
2018-03-16T00:15:59.417Z,2.51
2018-03-16T00:18:26.983Z,2.55
2018-03-16T00:20:54.527Z,2.53
2018-03-16T00:23:22.206Z,2.55
2018-03-16T00:25:49.727Z,2.44
2018-03-16T00:28:17.262Z,2.49
2018-03-16T00:30:44.800Z,2.46
2018-03-16T00:33:12.461Z,2.47
2018-03-16T00:35:39.972Z,2.50
2018-03-16T00:38:07.499Z,2.49
2018-03-16T00:40:35.033Z,2.44
2018-03-16T00:43:02.600Z,2.47
2018-03-16T00:45:30.109Z,2.45
2018-03-16T00:47:57.653Z,2.50
2018-03-16T00:50:25.225Z,2.42
2018-03-16T00:52:52.755Z,2.45
2018-03-16T00:55:20.274Z,2.45
2018-03-16T00:57:47.810Z,2.49
2018-03-16T01:00:15.338Z,2.46
2018-03-16T01:02:42.955Z,2.55
2018-03-16T01:05:10.514Z,2.54
2018-03-16T01:07:38.034Z,2.43
2018-03-16T01:10:05.639Z,2.38
2018-03-16T01:12:33.159Z,2.38
2018-03-16T01:15:00.757Z,2.44
2018-03-16T01:17:28.321Z,2.45
2018-03-16T01:19:55.878Z,2.43
2018-03-16T01:22:23.406Z,2.41
2018-03-16T01:24:50.939Z,2.42
2018-03-16T01:27:18.469Z,2.46
2018-03-16T01:29:46.014Z,2.36
2018-03-16T01:32:13.538Z,2.25
2018-03-16T01:34:41.090Z,2.30
2018-03-16T01:37:08.635Z,2.27
2018-03-16T01:39:36.194Z,2.39
2018-03-16T01:42:03.711Z,2.30
2018-03-16T01:44:31.238Z,2.33
2018-03-16T01:46:58.765Z,2.30
2018-03-16T01:49:26.387Z,2.27
2018-03-16T01:51:53.920Z,2.22
2018-03-16T01:54:21.465Z,2.23
2018-03-16T01:56:49.012Z,2.26
2018-03-16T01:59:16.566Z,2.15
2018-03-16T02:01:44.098Z,2.19
2018-03-16T02:04:11.617Z,2.20
2018-03-16T02:06:39.196Z,2.16
2018-03-16T02:09:06.709Z,2.17
2018-03-16T02:11:34.334Z,2.13
2018-03-16T02:14:01.875Z,2.11
2018-03-16T02:16:29.393Z,2.12
2018-03-16T02:18:56.938Z,2.16
2018-03-16T02:21:24.461Z,2.16
2018-03-16T02:23:52.013Z,2.14
2018-03-16T02:26:19.556Z,2.12
2018-03-16T02:28:47.072Z,2.14
2018-03-16T02:31:14.616Z,2.15
2018-03-16T02:33:42.278Z,2.08
2018-03-16T02:36:09.939Z,2.17
2018-03-16T02:38:37.469Z,2.07
2018-03-16T02:41:05.066Z,2.10
2018-03-16T02:43:32.721Z,2.04
2018-03-16T02:46:00.245Z,2.01
2018-03-16T02:48:27.765Z,2.08
2018-03-16T02:50:55.298Z,2.04
2018-03-16T02:53:22.834Z,1.99
2018-03-16T02:55:50.352Z,2.00
2018-03-16T02:58:17.908Z,1.99
2018-03-16T03:00:45.430Z,1.92
2018-03-16T03:03:12.970Z,2.01
2018-03-16T03:05:40.488Z,1.94
2018-03-16T03:08:08.086Z,2.01
2018-03-16T03:10:35.702Z,1.98
2018-03-16T03:13:03.233Z,2.04
2018-03-16T03:15:30.761Z,2.07
2018-03-16T03:17:58.358Z,2.04
2018-03-16T03:20:25.915Z,1.99
2018-03-16T03:22:53.442Z,2.03
2018-03-16T03:25:20.960Z,2.00
2018-03-16T03:27:48.489Z,2.00
2018-03-16T03:30:16.052Z,1.96
2018-03-16T03:32:43.583Z,2.02
2018-03-16T03:35:11.136Z,1.91
2018-03-16T03:37:38.656Z,1.90
2018-03-16T03:40:06.188Z,1.97
2018-03-16T03:42:33.746Z,1.96
2018-03-16T03:45:01.281Z,1.92
2018-03-16T03:47:28.799Z,1.91
2018-03-16T03:49:56.322Z,1.95
2018-03-16T03:52:23.839Z,1.98
2018-03-16T03:54:51.373Z,1.95
2018-03-16T03:57:18.910Z,1.88
2018-03-16T03:59:46.429Z,1.77
2018-03-16T04:02:13.990Z,1.86
2018-03-16T04:04:41.576Z,1.73
2018-03-16T04:07:09.142Z,1.79
2018-03-16T04:09:36.665Z,1.73
2018-03-16T04:12:04.186Z,1.68
2018-03-16T04:14:31.718Z,1.67
2018-03-16T04:16:59.240Z,1.72
2018-03-16T04:19:26.763Z,1.72
2018-03-16T04:21:54.291Z,1.70
2018-03-16T04:24:21.805Z,1.73
2018-03-16T04:26:49.335Z,1.67
2018-03-16T04:29:16.869Z,1.66
2018-03-16T04:31:44.408Z,1.56
2018-03-16T04:34:11.990Z,1.61
2018-03-16T04:36:39.509Z,1.59
2018-03-16T04:39:07.032Z,1.58
2018-03-16T04:41:34.568Z,1.64
2018-03-16T04:44:02.229Z,1.60
2018-03-16T04:46:29.931Z,1.60
2018-03-16T04:48:57.491Z,1.62
2018-03-16T04:51:25.054Z,1.54
2018-03-16T04:53:52.597Z,1.58
2018-03-16T04:56:20.236Z,1.54
2018-03-16T04:58:47.794Z,1.63
2018-03-16T05:01:15.325Z,1.58
2018-03-16T05:03:42.925Z,1.49
2018-03-16T05:06:10.489Z,1.50
2018-03-16T05:08:38.006Z,1.45
2018-03-16T05:11:05.593Z,1.47
2018-03-16T05:13:33.173Z,1.41
2018-03-16T05:16:00.703Z,1.41
2018-03-16T05:18:28.267Z,1.41
2018-03-16T05:20:55.891Z,1.36
2018-03-16T05:23:23.406Z,1.35
2018-03-16T05:25:50.959Z,1.38
2018-03-16T05:28:18.522Z,1.40
2018-03-16T05:30:46.076Z,1.44
2018-03-16T05:33:13.639Z,1.42
2018-03-16T05:35:41.199Z,1.38
2018-03-16T05:38:08.761Z,1.37
2018-03-16T05:40:36.287Z,1.37
2018-03-16T05:43:03.934Z,1.32
2018-03-16T05:45:31.556Z,1.36
2018-03-16T05:47:59.105Z,1.37
2018-03-16T05:50:26.673Z,1.23
2018-03-16T05:52:54.202Z,1.29
2018-03-16T05:55:21.762Z,1.28
2018-03-16T05:57:49.447Z,1.30
2018-03-16T06:00:17.112Z,1.31
2018-03-16T06:02:44.669Z,1.34
2018-03-16T06:05:12.181Z,1.34
2018-03-16T06:07:39.697Z,1.33
2018-03-16T06:10:07.231Z,1.37
2018-03-16T06:12:34.773Z,1.33
2018-03-16T06:15:02.382Z,1.30
2018-03-16T06:17:30.271Z,1.27
2018-03-16T06:19:57.825Z,1.25
2018-03-16T06:22:25.560Z,1.23
2018-03-16T06:24:53.222Z,1.29
2018-03-16T06:27:20.882Z,1.27
2018-03-16T06:29:48.478Z,1.23
2018-03-16T06:32:16.003Z,1.27
2018-03-16T06:34:44.151Z,1.21
2018-03-16T06:37:11.710Z,1.28
2018-03-16T06:39:39.228Z,1.30
2018-03-16T06:42:06.740Z,1.29
2018-03-16T06:44:34.334Z,1.24
2018-03-16T06:47:01.878Z,1.26
2018-03-16T06:49:29.436Z,1.20
2018-03-16T06:51:57.014Z,1.21
2018-03-16T06:54:24.557Z,1.24
2018-03-16T06:56:52.129Z,1.30
2018-03-16T06:59:19.687Z,1.36
2018-03-16T07:01:47.224Z,1.32
2018-03-16T07:04:14.765Z,1.40
2018-03-16T07:06:42.300Z,1.22
2018-03-16T07:09:09.845Z,1.28
2018-03-16T07:11:37.385Z,1.24
2018-03-16T07:14:05.008Z,1.30
2018-03-16T07:16:32.547Z,1.22
2018-03-16T07:19:00.077Z,1.28
2018-03-16T07:21:27.684Z,1.23
2018-03-16T07:23:55.201Z,1.20
2018-03-16T07:26:22.735Z,1.26
2018-03-16T07:28:50.266Z,1.27
2018-03-16T07:31:17.855Z,1.21
2018-03-16T07:33:45.386Z,1.19
2018-03-16T07:36:12.922Z,1.19
2018-03-16T07:38:40.532Z,1.19
2018-03-16T07:41:08.044Z,1.24
2018-03-16T07:43:35.649Z,1.24
2018-03-16T07:46:03.213Z,1.23
2018-03-16T07:48:30.740Z,1.26
2018-03-16T07:50:58.318Z,1.21
2018-03-16T07:53:25.896Z,1.32
2018-03-16T07:55:53.419Z,1.29
2018-03-16T07:58:20.950Z,1.25
2018-03-16T08:00:48.471Z,1.33
2018-03-16T08:03:15.987Z,1.39
2018-03-16T08:05:43.537Z,1.31
2018-03-16T08:08:11.069Z,1.23
2018-03-16T08:10:38.604Z,1.24
2018-03-16T08:13:06.140Z,1.30
2018-03-16T08:15:33.672Z,1.35
2018-03-16T08:18:01.197Z,1.43
2018-03-16T08:20:28.747Z,1.42
2018-03-16T08:22:56.288Z,1.31
2018-03-16T08:25:23.795Z,1.39
2018-03-16T08:27:51.338Z,1.36
2018-03-16T08:30:18.853Z,1.43
2018-03-16T08:32:46.374Z,1.47
2018-03-16T08:35:13.905Z,1.45
2018-03-16T08:37:41.428Z,1.59
2018-03-16T08:40:09.024Z,1.44
2018-03-16T08:42:36.582Z,1.44
2018-03-16T08:45:04.102Z,1.44
2018-03-16T08:47:31.636Z,1.35
2018-03-16T08:49:59.158Z,1.31
2018-03-16T08:52:26.683Z,1.43
2018-03-16T08:54:54.205Z,1.45
2018-03-16T08:57:21.839Z,1.40
2018-03-16T08:59:49.373Z,1.48
2018-03-16T09:02:16.936Z,1.41
2018-03-16T09:04:44.453Z,1.40
2018-03-16T09:07:11.978Z,1.56
2018-03-16T09:09:39.538Z,1.42
2018-03-16T09:12:07.053Z,1.38
2018-03-16T09:14:34.661Z,1.36
2018-03-16T09:17:02.197Z,1.20
2018-03-16T09:19:29.778Z,1.32
2018-03-16T09:21:57.304Z,1.26
2018-03-16T09:24:24.893Z,1.29
2018-03-16T09:26:52.421Z,1.26
2018-03-16T09:29:19.944Z,1.20
2018-03-16T09:31:47.475Z,1.33
2018-03-16T09:34:14.990Z,1.26
2018-03-16T09:36:42.525Z,1.23
2018-03-16T09:39:10.053Z,1.17
2018-03-16T09:41:37.615Z,1.29
2018-03-16T09:44:05.333Z,1.31
2018-03-16T09:46:33.099Z,1.24
2018-03-16T09:49:00.937Z,1.30
2018-03-16T09:51:28.679Z,1.36
2018-03-16T09:53:56.438Z,1.25
2018-03-16T09:56:24.206Z,1.34
2018-03-16T09:58:51.867Z,1.40
2018-03-16T10:01:19.459Z,1.21
2018-03-16T10:03:47.010Z,1.26
2018-03-16T10:06:14.548Z,1.22
2018-03-16T10:08:42.192Z,1.22
2018-03-16T10:11:09.735Z,1.15
2018-03-16T10:13:37.278Z,1.07
2018-03-16T10:16:04.899Z,1.13
2018-03-16T10:18:32.422Z,0.99
2018-03-16T10:21:00.213Z,1.02
2018-03-16T10:23:27.876Z,1.14
2018-03-16T10:25:55.463Z,1.15
2018-03-16T10:28:23.021Z,1.16
2018-03-16T10:30:50.537Z,1.11
2018-03-16T10:33:18.069Z,1.20
2018-03-16T10:35:45.669Z,1.32
2018-03-16T10:38:13.189Z,1.31
2018-03-16T10:40:40.882Z,1.23
2018-03-16T10:43:08.661Z,1.22
2018-03-16T10:45:36.454Z,1.19
2018-03-16T10:48:04.480Z,1.18
2018-03-16T10:50:32.163Z,1.18
2018-03-16T10:52:59.877Z,1.05
2018-03-16T10:55:27.485Z,1.18
2018-03-16T10:57:55.040Z,1.16
2018-03-16T11:00:28.373Z,1.21
2018-03-16T11:03:01.448Z,1.09
2018-03-16T11:05:46.720Z,1.07
2018-03-16T11:08:20.234Z,1.13
2018-03-16T11:10:48.022Z,1.16
2018-03-16T11:13:15.745Z,1.16
2018-03-16T11:15:43.399Z,1.10
2018-03-16T11:18:11.045Z,1.18
2018-03-16T11:20:38.562Z,1.07
2018-03-16T11:23:06.164Z,1.06
2018-03-16T11:25:33.738Z,1.11
2018-03-16T11:28:01.269Z,1.26
2018-03-16T11:30:29.081Z,1.09
2018-03-16T11:32:56.732Z,1.17
2018-03-16T11:35:24.389Z,1.25
2018-03-16T11:37:51.948Z,1.05
2018-03-16T11:40:19.474Z,1.04
2018-03-16T11:42:47.071Z,1.19
2018-03-16T11:45:14.642Z,1.08
2018-03-16T11:47:42.161Z,1.03
2018-03-16T11:50:09.690Z,1.06
2018-03-16T11:52:37.251Z,0.78
2018-03-16T11:55:04.791Z,0.99
2018-03-16T11:57:32.330Z,0.94
2018-03-16T11:59:59.859Z,0.93
2018-03-16T12:02:27.388Z,1.04
2018-03-16T12:04:54.947Z,0.98
2018-03-16T12:07:22.513Z,0.85
2018-03-16T12:09:50.046Z,0.75
2018-03-16T12:12:17.598Z,0.70
2018-03-16T12:14:45.110Z,0.72
2018-03-16T12:17:12.657Z,0.72
2018-03-16T12:19:40.212Z,0.66
2018-03-16T12:22:07.796Z,0.67
2018-03-16T12:24:35.339Z,0.67
2018-03-16T12:27:02.880Z,0.64
2018-03-16T12:29:30.403Z,0.61
2018-03-16T12:31:57.959Z,0.62
2018-03-16T12:34:25.517Z,0.76
2018-03-16T12:36:53.058Z,0.71
2018-03-16T12:39:20.596Z,0.76
2018-03-16T12:41:48.204Z,0.80
2018-03-16T12:44:15.725Z,0.83
2018-03-16T12:46:43.247Z,0.78
2018-03-16T12:49:10.782Z,0.70
2018-03-16T12:51:42.226Z,0.61
2018-03-16T12:54:06.021Z,0.81
2018-03-16T12:56:33.667Z,0.83
2018-03-16T12:59:01.194Z,0.73
2018-03-16T13:01:28.796Z,0.72
2018-03-16T13:03:56.317Z,0.73
2018-03-16T13:06:23.908Z,0.73
2018-03-16T13:08:51.470Z,0.71
2018-03-16T13:11:19.012Z,0.74
2018-03-16T13:13:46.541Z,0.50
2018-03-16T13:16:14.104Z,0.50
2018-03-16T13:18:41.673Z,0.42
2018-03-16T13:21:09.200Z,0.55
2018-03-16T13:23:36.740Z,0.55
2018-03-16T13:26:04.259Z,0.59
2018-03-16T13:28:31.778Z,0.73
2018-03-16T13:30:59.421Z,0.55
2018-03-16T13:33:26.933Z,0.72
2018-03-16T13:35:54.457Z,0.82
2018-03-16T13:38:21.982Z,0.69
2018-03-16T13:40:49.540Z,0.65
2018-03-16T13:43:17.102Z,0.60
2018-03-16T13:45:44.631Z,0.75
2018-03-16T13:48:12.151Z,0.78
2018-03-16T13:50:39.667Z,0.71
2018-03-16T13:53:07.222Z,0.84
2018-03-16T13:55:34.764Z,0.56
2018-03-16T13:58:02.317Z,0.59
2018-03-16T14:00:29.856Z,0.53
2018-03-16T14:02:57.426Z,0.68
2018-03-16T14:05:24.963Z,0.54
2018-03-16T14:07:52.484Z,0.46
2018-03-16T14:10:20.002Z,0.40
2018-03-16T14:12:47.549Z,0.41
2018-03-16T14:15:15.075Z,0.34
2018-03-16T14:17:42.612Z,0.22
2018-03-16T14:20:10.134Z,0.25
2018-03-16T14:22:37.756Z,0.39
2018-03-16T14:25:05.270Z,0.25
2018-03-16T14:27:32.799Z,0.23
2018-03-16T14:30:00.336Z,0.26
2018-03-16T14:32:27.862Z,0.24
2018-03-16T14:34:55.384Z,0.19
2018-03-16T14:37:23.017Z,0.23
2018-03-16T14:39:50.539Z,0.11
2018-03-16T14:42:18.167Z,0.18
2018-03-16T14:44:45.808Z,0.11
2018-03-16T14:47:14.014Z,0.27
2018-03-16T14:49:41.535Z,0.35
2018-03-16T14:52:09.054Z,0.33
2018-03-16T14:54:36.585Z,0.18
2018-03-16T14:57:04.107Z,0.17
2018-03-16T14:59:31.632Z,0.34
2018-03-16T15:01:59.148Z,0.44
2018-03-16T15:04:26.780Z,0.38
2018-03-16T15:06:54.348Z,0.40
2018-03-16T15:09:21.874Z,0.35
2018-03-16T15:11:49.469Z,0.33
2018-03-16T15:14:16.987Z,0.41
2018-03-16T15:16:44.521Z,0.47
2018-03-16T15:19:12.032Z,0.41
2018-03-16T15:21:39.594Z,0.43
2018-03-16T15:24:07.135Z,0.41
2018-03-16T15:26:34.644Z,0.40
2018-03-16T15:29:02.184Z,0.45
2018-03-16T15:31:29.741Z,0.40
2018-03-16T15:33:57.250Z,0.39
2018-03-16T15:36:24.778Z,0.41
2018-03-16T15:38:52.438Z,0.45
2018-03-16T15:41:19.971Z,0.42
2018-03-16T15:43:47.509Z,0.51
2018-03-16T15:46:15.089Z,0.54
2018-03-16T15:48:42.651Z,0.52
2018-03-16T15:51:10.210Z,0.51
2018-03-16T15:53:37.739Z,0.53
2018-03-16T15:56:05.274Z,0.56
2018-03-16T15:58:32.785Z,0.61
2018-03-16T16:01:00.363Z,0.62
2018-03-16T16:03:27.885Z,0.59
2018-03-16T16:05:55.405Z,0.57
2018-03-16T16:08:23.025Z,0.62
2018-03-16T16:10:50.548Z,0.62
2018-03-16T16:13:18.075Z,0.79
2018-03-16T16:15:45.709Z,0.66
2018-03-16T16:18:13.270Z,0.69
2018-03-16T16:20:40.795Z,0.71
2018-03-16T16:23:08.300Z,0.72
2018-03-16T16:25:35.815Z,0.72
2018-03-16T16:28:03.419Z,0.66
2018-03-16T16:30:30.928Z,0.65
2018-03-16T16:32:58.455Z,0.63
2018-03-16T16:35:25.966Z,0.68
2018-03-16T16:37:53.485Z,0.61
2018-03-16T16:40:21.000Z,0.55
2018-03-16T16:42:48.579Z,0.63
2018-03-16T16:45:16.100Z,0.51
2018-03-16T16:47:43.712Z,0.47
2018-03-16T16:50:11.239Z,0.43
2018-03-16T16:52:38.758Z,0.39
2018-03-16T16:55:06.299Z,0.35
2018-03-16T16:57:33.840Z,0.35
2018-03-16T17:00:01.399Z,0.32
2018-03-16T17:02:28.948Z,0.34
2018-03-16T17:04:56.612Z,0.35
2018-03-16T17:07:24.142Z,0.35
2018-03-16T17:09:51.698Z,0.35
2018-03-16T17:12:19.220Z,0.35
2018-03-16T17:14:46.761Z,0.31
2018-03-16T17:17:14.319Z,0.36
2018-03-16T17:19:41.836Z,0.28
2018-03-16T17:22:09.442Z,0.29
2018-03-16T17:24:36.998Z,0.34
2018-03-16T17:27:04.525Z,0.27
2018-03-16T17:29:32.122Z,0.25
2018-03-16T17:31:59.711Z,0.26
2018-03-16T17:34:27.342Z,0.28
2018-03-16T17:36:54.870Z,0.26
2018-03-16T17:39:22.441Z,0.26
2018-03-16T17:41:49.974Z,0.22
2018-03-16T17:44:17.684Z,0.17
2018-03-16T17:46:45.241Z,0.15
2018-03-16T17:49:12.758Z,0.16
2018-03-16T17:51:40.300Z,0.09
2018-03-16T17:54:07.816Z,0.09
2018-03-16T17:56:35.330Z,0.07
2018-03-16T17:59:03.151Z,-0.02
2018-03-16T18:01:30.664Z,-0.01
2018-03-16T18:03:58.502Z,-0.03
2018-03-16T18:06:26.456Z,0.04
2018-03-16T18:08:54.106Z,-0.06
2018-03-16T18:11:21.641Z,-0.02
2018-03-16T18:13:49.173Z,-0.06
2018-03-16T18:16:16.703Z,-0.05
2018-03-16T18:18:44.223Z,-0.05
2018-03-16T18:21:11.754Z,-0.02
2018-03-16T18:23:39.300Z,0.03
2018-03-16T18:26:06.839Z,-0.07
2018-03-16T18:28:34.357Z,-0.02
2018-03-16T18:31:01.918Z,-0.05
2018-03-16T18:33:29.545Z,-0.08
2018-03-16T18:35:57.076Z,-0.07
2018-03-16T18:38:24.583Z,-0.08
2018-03-16T18:40:52.174Z,-0.07
2018-03-16T18:43:19.772Z,-0.10
2018-03-16T18:45:47.291Z,-0.14
2018-03-16T18:48:14.850Z,-0.10
2018-03-16T18:50:42.370Z,-0.13
2018-03-16T18:53:09.940Z,-0.08
2018-03-16T18:55:37.497Z,-0.12
2018-03-16T18:58:05.025Z,-0.14
2018-03-16T19:00:32.649Z,-0.16
2018-03-16T19:03:00.164Z,-0.23
2018-03-16T19:05:27.861Z,-0.37
2018-03-16T19:07:55.385Z,-0.40
2018-03-16T19:10:23.069Z,-0.49
2018-03-16T19:12:50.762Z,-0.50
2018-03-16T19:15:18.285Z,-0.53
2018-03-16T19:17:45.809Z,-0.62
2018-03-16T19:20:13.338Z,-0.64
2018-03-16T19:22:40.992Z,-0.62
2018-03-16T19:25:09.020Z,-0.55
2018-03-16T19:27:36.557Z,-0.56
2018-03-16T19:30:04.087Z,-0.65
2018-03-16T19:32:31.625Z,-0.55
2018-03-16T19:34:59.146Z,-0.62
2018-03-16T19:37:26.792Z,-0.58
2018-03-16T19:39:54.403Z,-0.56
2018-03-16T19:42:21.921Z,-0.57
2018-03-16T19:44:49.458Z,-0.63
2018-03-16T19:47:17.016Z,-0.60
2018-03-16T19:49:44.539Z,-0.54
2018-03-16T19:52:12.248Z,-0.53
2018-03-16T19:54:39.978Z,-0.57
2018-03-16T19:57:07.665Z,-0.56
2018-03-16T19:59:35.224Z,-0.45
2018-03-16T20:02:02.768Z,-0.50
2018-03-16T20:04:30.297Z,-0.50
2018-03-16T20:06:57.952Z,-0.44
2018-03-16T20:09:25.684Z,-0.51
2018-03-16T20:11:53.491Z,-0.54
2018-03-16T20:14:21.049Z,-0.60
2018-03-16T20:16:48.581Z,-0.55
2018-03-16T20:19:16.119Z,-0.57
2018-03-16T20:21:44.188Z,-0.54
2018-03-16T20:24:12.088Z,-0.57
2018-03-16T20:26:40.055Z,-0.61
2018-03-16T20:29:07.896Z,-0.63
2018-03-16T20:31:35.487Z,-0.63
2018-03-16T20:34:03.041Z,-0.60
2018-03-16T20:36:30.979Z,-0.62
2018-03-16T20:38:58.508Z,-0.65
2018-03-16T20:41:26.016Z,-0.63
2018-03-16T20:43:53.657Z,-0.65
2018-03-16T20:46:21.183Z,-0.72
2018-03-16T20:48:48.701Z,-0.67
2018-03-16T20:51:16.351Z,-0.70
2018-03-16T20:53:43.893Z,-0.78
2018-03-16T20:56:11.452Z,-0.80
2018-03-16T20:58:38.970Z,-0.85
2018-03-16T21:01:06.499Z,-0.81
2018-03-16T21:03:34.034Z,-0.87
2018-03-16T21:06:01.563Z,-0.85
2018-03-16T21:08:29.089Z,-0.84
2018-03-16T21:10:56.625Z,-0.90
2018-03-16T21:13:24.141Z,-0.88
2018-03-16T21:15:51.654Z,-0.94
2018-03-16T21:18:19.186Z,-0.72
2018-03-16T21:20:46.713Z,-0.62
2018-03-16T21:23:14.306Z,-0.50
2018-03-16T21:25:41.821Z,-0.47
2018-03-16T21:28:09.338Z,-0.59
2018-03-16T21:30:36.873Z,-0.53
2018-03-16T21:33:04.397Z,-0.44
2018-03-16T21:35:31.944Z,-0.35
2018-03-16T21:37:59.464Z,-0.51
2018-03-16T21:40:27.006Z,-0.48
2018-03-16T21:42:54.534Z,-0.37
2018-03-16T21:45:22.065Z,-0.45
2018-03-16T21:47:49.609Z,-0.43
2018-03-16T21:50:17.113Z,-0.39
2018-03-16T21:52:44.631Z,-0.24
2018-03-16T21:55:12.147Z,-0.28
2018-03-16T21:57:39.674Z,-0.47
2018-03-16T22:00:07.198Z,-0.44
2018-03-16T22:02:34.737Z,-0.50
2018-03-16T22:05:02.274Z,-0.45
2018-03-16T22:07:29.800Z,-0.56
2018-03-16T22:09:57.320Z,-0.53
2018-03-16T22:12:24.844Z,-0.51
2018-03-16T22:14:52.357Z,-0.54
2018-03-16T22:17:19.887Z,-0.64
2018-03-16T22:19:47.400Z,-0.61
2018-03-16T22:22:14.933Z,-0.71
2018-03-16T22:24:42.451Z,-0.72
2018-03-16T22:27:10.027Z,-0.70
2018-03-16T22:29:37.611Z,-0.68
2018-03-16T22:32:05.157Z,-0.69
2018-03-16T22:34:32.697Z,-0.74
2018-03-16T22:37:00.294Z,-0.78
2018-03-16T22:39:27.808Z,-0.91
2018-03-16T22:41:55.330Z,-0.86
2018-03-16T22:44:22.843Z,-0.88
2018-03-16T22:46:50.430Z,-0.84
2018-03-16T22:49:17.962Z,-0.86
2018-03-16T22:51:45.485Z,-0.81
2018-03-16T22:54:13.009Z,-0.76
2018-03-16T22:56:40.615Z,-0.77
2018-03-16T22:59:08.127Z,-0.87
2018-03-16T23:01:35.687Z,-0.85
2018-03-16T23:04:03.215Z,-0.90
2018-03-16T23:06:30.754Z,-1.08
2018-03-16T23:08:58.300Z,-0.93
2018-03-16T23:11:25.809Z,-0.89
2018-03-16T23:13:53.381Z,-0.87
2018-03-16T23:16:20.911Z,-0.95
2018-03-16T23:18:48.425Z,-0.94
2018-03-16T23:21:15.945Z,-1.01
2018-03-16T23:23:43.457Z,-1.02
2018-03-16T23:26:10.978Z,-1.08
2018-03-16T23:28:38.493Z,-1.02
2018-03-16T23:31:06.017Z,-1.04
2018-03-16T23:33:33.545Z,-1.09
2018-03-16T23:36:01.082Z,-0.95
2018-03-16T23:38:28.611Z,-1.00
2018-03-16T23:40:56.240Z,-1.11
2018-03-16T23:43:23.783Z,-1.09
2018-03-16T23:45:51.306Z,-1.14
2018-03-16T23:48:18.847Z,-1.17
2018-03-16T23:50:46.371Z,-1.14
2018-03-16T23:53:13.932Z,-0.97
2018-03-16T23:55:41.460Z,-1.29
2018-03-16T23:58:09.017Z,-1.43
